Time;durP1;ratioP1;P1;durP2;ratioP2;P2;SDS_P1;SDS_P2;PMS_P1;PMS_P2;Temp;Humidity;BMP_temperature;BMP_pressure;BME280_temperature;BME280_humidity;BME280_pressure;Samples;Min_cycle;Max_cycle;Signal;HPM_P1;HPM_P2
2023/10/18 00:00:43;;;;;;;12.57;10.43;;;;;;;8.61;87.93;97831.66;4200694;28;20209;-84
2023/10/18 00:02:47;;;;;;;14.20;10.70;;;;;;;8.62;87.88;97831.56;4173770;28;20248;-84
2023/10/18 00:04:50;;;;;;;16.02;10.82;;;;;;;8.63;88.00;97819.38;4171358;28;21910;-85
2023/10/18 00:06:55;;;;;;;13.82;10.93;;;;;;;8.64;88.28;97827.09;4183724;28;20198;-84
2023/10/18 00:08:58;;;;;;;14.02;10.48;;;;;;;8.67;88.98;97823.47;4157315;28;20206;-84
2023/10/18 00:11:00;;;;;;;12.52;10.32;;;;;;;8.67;87.28;97819.09;4203988;28;20208;-84
2023/10/18 00:13:04;;;;;;;13.73;11.05;;;;;;;8.67;88.66;97818.28;4186582;28;20296;-84
2023/10/18 00:15:11;;;;;;;13.23;11.75;;;;;;;8.65;87.79;97813.16;4167093;28;20237;-84
2023/10/18 00:17:14;;;;;;;15.50;10.93;;;;;;;8.62;88.59;97813.38;4156644;28;20210;-84
2023/10/18 00:19:17;;;;;;;13.90;10.57;;;;;;;8.61;89.02;97809.09;4189388;28;20623;-84
2023/10/18 00:21:21;;;;;;;15.30;11.60;;;;;;;8.59;88.16;97807.56;4202248;28;21199;-84
2023/10/18 00:23:24;;;;;;;14.85;11.70;;;;;;;8.62;88.77;97812.53;4153956;28;21241;-84
2023/10/18 00:25:27;;;;;;;13.23;11.00;;;;;;;8.65;88.01;97807.16;4170268;28;20284;-84
2023/10/18 00:27:29;;;;;;;17.02;11.82;;;;;;;8.65;88.74;97801.94;4167708;28;21211;-84
2023/10/18 00:29:33;;;;;;;16.13;11.57;;;;;;;8.66;88.43;97803.59;4193580;28;20206;-86
2023/10/18 00:31:37;;;;;;;15.43;11.82;;;;;;;8.66;88.58;97804.44;4168712;28;20264;-85
2023/10/18 00:33:40;;;;;;;13.23;10.77;;;;;;;8.67;88.16;97798.28;4203435;28;20250;-86
2023/10/18 00:35:44;;;;;;;13.57;10.53;;;;;;;8.65;87.92;97791.56;4151770;28;20673;-86
2023/10/18 00:37:47;;;;;;;13.98;10.55;;;;;;;8.66;88.91;97790.59;4204564;28;20667;-86
2023/10/18 00:39:51;;;;;;;14.50;10.97;;;;;;;8.66;87.37;97783.66;4170878;28;20229;-86
2023/10/18 00:41:55;;;;;;;14.65;10.70;;;;;;;8.62;87.32;97781.34;4158246;28;21198;-86
2023/10/18 00:43:58;;;;;;;15.57;11.60;;;;;;;8.63;88.55;97778.66;4148965;28;20210;-86
2023/10/18 00:46:06;;;;;;;14.88;11.38;;;;;;;8.62;88.49;97781.34;4155829;28;20210;-86
2023/10/18 00:48:11;;;;;;;15.00;11.87;;;;;;;8.62;87.17;97776.97;4173558;28;20201;-86
2023/10/18 00:50:18;;;;;;;14.77;10.80;;;;;;;8.59;87.13;97782.38;4174734;28;20624;-86
2023/10/18 00:52:23;;;;;;;12.10;10.82;;;;;;;8.54;87.14;97778.44;4188996;28;20774;-86
2023/10/18 00:54:26;;;;;;;17.88;11.63;;;;;;;8.48;87.59;97778.84;4206741;28;20228;-86
2023/10/18 00:56:30;;;;;;;16.00;11.00;;;;;;;8.46;89.11;97783.28;4169692;28;22399;-86
2023/10/18 00:58:34;;;;;;;15.27;12.05;;;;;;;8.47;88.23;97777.16;4173101;28;20205;-85
2023/10/18 01:00:40;;;;;;;17.10;12.30;;;;;;;8.48;87.75;97776.22;4151676;28;20218;-86
2023/10/18 01:02:46;;;;;;;18.80;12.75;;;;;;;8.48;88.12;97774.47;4188621;28;20202;-86
2023/10/18 01:04:52;;;;;;;15.80;12.57;;;;;;;8.50;88.69;97772.59;4176224;28;20201;-85
2023/10/18 01:06:57;;;;;;;15.50;11.25;;;;;;;8.51;88.33;97769.06;4172254;28;20210;-85
2023/10/18 01:09:03;;;;;;;14.98;11.80;;;;;;;8.50;87.37;97762.19;4188297;28;20206;-86
2023/10/18 01:11:10;;;;;;;16.15;11.43;;;;;;;8.45;89.13;97766.88;4172425;28;20214;-86
2023/10/18 01:13:12;;;;;;;13.88;10.63;;;;;;;8.45;87.37;97759.06;4203800;28;20209;-85
2023/10/18 01:15:19;;;;;;;16.05;11.80;;;;;;;8.44;88.18;97747.00;4175601;28;20411;-86
2023/10/18 01:17:23;;;;;;;15.70;11.05;;;;;;;8.41;87.48;97748.16;4172711;28;20217;-86
2023/10/18 01:19:26;;;;;;;16.13;11.30;;;;;;;8.32;87.47;97743.56;4157721;28;20209;-86
2023/10/18 01:21:33;;;;;;;14.52;10.60;;;;;;;8.28;87.74;97735.09;4157656;28;20211;-86
2023/10/18 01:23:38;;;;;;;12.95;11.07;;;;;;;8.24;88.82;97727.59;4173598;28;20308;-86
2023/10/18 01:25:42;;;;;;;14.93;11.45;;;;;;;8.19;89.24;97720.13;4159057;28;20203;-86
2023/10/18 01:27:45;;;;;;;12.48;10.18;;;;;;;8.16;89.01;97725.53;4153817;28;20696;-86
2023/10/18 01:29:48;;;;;;;15.35;11.75;;;;;;;8.10;88.63;97720.72;4168701;28;20230;-86
2023/10/18 01:31:55;;;;;;;16.60;10.98;;;;;;;8.07;89.15;97718.31;4150717;28;20210;-85
2023/10/18 01:33:59;;;;;;;16.30;11.77;;;;;;;8.06;88.68;97719.22;4202144;28;20698;-85
2023/10/18 01:36:04;;;;;;;14.55;12.43;;;;;;;8.01;89.70;97712.66;4174427;28;20233;-86
2023/10/18 01:38:13;;;;;;;14.80;11.80;;;;;;;8.01;88.36;97717.84;4172866;28;20624;-85
2023/10/18 01:40:41;;;;;;;19.42;12.57;;;;;;;8.00;88.96;97709.22;4172969;28;20740;-84
2023/10/18 01:42:48;;;;;;;15.15;11.35;;;;;;;8.04;90.09;97710.72;4187689;28;20280;-83
2023/10/18 01:44:53;;;;;;;14.73;11.80;;;;;;;8.02;89.83;97709.13;4186957;28;21423;-84
2023/10/18 01:47:02;;;;;;;18.52;11.38;;;;;;;7.97;88.58;97709.44;4169825;28;20370;-84
2023/10/18 01:49:06;;;;;;;16.17;11.45;;;;;;;7.93;88.98;97704.53;4173883;28;20206;-84
2023/10/18 01:51:09;;;;;;;15.48;11.43;;;;;;;7.93;89.81;97703.72;4189729;28;20320;-84
2023/10/18 01:53:16;;;;;;;16.77;11.68;;;;;;;7.94;90.46;97702.75;4170769;28;20284;-84
2023/10/18 01:55:20;;;;;;;21.02;14.18;;;;;;;7.95;89.39;97694.88;4191579;28;20213;-84
2023/10/18 01:57:25;;;;;;;16.98;12.27;;;;;;;7.99;90.03;97693.75;4192074;28;20202;-84
2023/10/18 01:59:30;;;;;;;19.77;13.13;;;;;;;7.96;90.28;97692.19;4205452;28;20200;-84
2023/10/18 02:01:34;;;;;;;19.10;13.35;;;;;;;7.96;90.86;97693.13;4208801;28;20213;-84
2023/10/18 02:03:39;;;;;;;18.75;13.10;;;;;;;8.00;90.39;97693.66;4171820;28;20209;-84
2023/10/18 02:05:43;;;;;;;18.70;13.45;;;;;;;7.99;90.36;97693.75;4154003;28;20212;-84
2023/10/18 02:07:48;;;;;;;17.83;13.45;;;;;;;8.02;90.56;97689.19;4201463;28;20205;-84
2023/10/18 02:09:52;;;;;;;18.63;13.13;;;;;;;8.06;90.01;97693.25;4175155;28;20571;-84
2023/10/18 02:11:56;;;;;;;15.95;12.65;;;;;;;8.09;89.78;97690.47;4159201;28;20206;-84
2023/10/18 02:14:01;;;;;;;15.57;12.25;;;;;;;8.11;89.07;97686.03;4159591;28;20726;-84
2023/10/18 02:16:06;;;;;;;14.70;11.70;;;;;;;8.02;90.08;97681.41;4176378;28;20233;-84
2023/10/18 02:18:10;;;;;;;14.68;11.35;;;;;;;7.98;89.11;97685.13;4160741;28;20306;-84
2023/10/18 02:20:25;;;;;;;15.50;11.55;;;;;;;7.94;90.20;97682.84;4163913;28;20260;-84
2023/10/18 02:22:28;;;;;;;14.55;10.98;;;;;;;7.89;90.54;97673.66;4171971;28;20276;-84
2023/10/18 02:24:31;;;;;;;14.07;10.55;;;;;;;7.85;89.25;97683.44;4204520;28;20250;-84
2023/10/18 02:26:35;;;;;;;17.85;11.45;;;;;;;7.81;90.54;97681.94;4175338;28;20233;-84
2023/10/18 02:28:40;;;;;;;14.40;11.75;;;;;;;7.78;90.52;97687.34;4158554;28;20237;-84
2023/10/18 02:30:43;;;;;;;14.40;10.73;;;;;;;7.77;88.95;97674.47;4173956;28;20730;-84
2023/10/18 02:32:50;;;;;;;16.17;11.85;;;;;;;7.73;89.12;97685.97;4183041;28;20209;-84
2023/10/18 02:34:53;;;;;;;16.98;11.23;;;;;;;7.71;89.26;97683.47;4175363;28;20202;-84
2023/10/18 02:36:58;;;;;;;14.80;11.25;;;;;;;7.69;89.92;97687.91;4207467;28;20306;-83
2023/10/18 02:39:01;;;;;;;14.38;11.10;;;;;;;7.66;90.69;97682.09;4154564;28;20195;-84
2023/10/18 02:41:14;;;;;;;14.13;11.35;;;;;;;7.65;90.73;97678.69;4170193;28;20321;-84
2023/10/18 02:43:19;;;;;;;16.60;11.57;;;;;;;7.63;89.30;97677.09;4176514;28;20216;-84
2023/10/18 02:45:23;;;;;;;15.43;11.15;;;;;;;7.60;89.29;97678.13;4206731;28;20670;-84
2023/10/18 02:47:29;;;;;;;16.63;12.45;;;;;;;7.60;89.85;97687.69;4157983;28;20206;-83
2023/10/18 02:49:34;;;;;;;14.50;11.27;;;;;;;7.57;90.67;97682.69;4187443;28;22170;-86
2023/10/18 02:51:37;;;;;;;16.35;11.25;;;;;;;7.55;89.52;97681.94;4173424;28;20827;-86
2023/10/18 02:53:41;;;;;;;14.55;11.77;;;;;;;7.56;90.79;97687.03;4173178;28;20687;-86
2023/10/18 02:55:49;;;;;;;16.13;12.48;;;;;;;7.53;89.72;97682.06;4206589;28;20231;-85
2023/10/18 02:57:53;;;;;;;15.82;12.43;;;;;;;7.53;90.61;97692.44;4156118;28;20502;-85
2023/10/18 02:59:56;;;;;;;19.33;13.30;;;;;;;7.59;91.16;97680.81;4171410;28;20208;-86
2023/10/18 03:02:04;;;;;;;17.02;12.85;;;;;;;7.63;90.73;97687.47;4176655;28;20204;-86
2023/10/18 03:04:09;;;;;;;16.20;12.35;;;;;;;7.66;91.93;97684.69;4157871;28;20214;-86
2023/10/18 03:06:14;;;;;;;20.42;13.00;;;;;;;7.70;92.10;97687.00;4187823;28;20977;-86
2023/10/18 03:08:20;;;;;;;16.52;13.30;;;;;;;7.73;90.78;97688.59;4166148;28;20275;-86
2023/10/18 03:10:27;;;;;;;19.48;13.02;;;;;;;7.75;92.01;97682.34;4189793;28;20742;-86
2023/10/18 03:12:36;;;;;;;19.17;12.68;;;;;;;7.81;91.51;97686.31;4174978;28;20205;-86
2023/10/18 03:14:41;;;;;;;20.80;13.75;;;;;;;7.86;91.95;97689.44;4191075;28;20683;-85
2023/10/18 03:16:46;;;;;;;19.83;13.07;;;;;;;7.89;91.91;97689.25;4154719;28;20600;-86
2023/10/18 03:18:50;;;;;;;16.48;12.15;;;;;;;7.95;91.11;97679.28;4174171;28;20202;-85
2023/10/18 03:20:57;;;;;;;19.98;13.35;;;;;;;7.96;91.70;97671.41;4179636;28;20202;-86
2023/10/18 03:23:02;;;;;;;17.83;13.23;;;;;;;7.94;90.71;97672.47;4185859;28;20279;-85
2023/10/18 03:25:13;;;;;;;17.75;12.95;;;;;;;7.92;90.03;97663.09;4181007;28;20309;-86
2023/10/18 03:27:16;;;;;;;20.48;14.15;;;;;;;7.86;90.71;97660.88;4205806;28;20204;-86
2023/10/18 03:29:20;;;;;;;16.60;13.45;;;;;;;7.86;90.42;97664.31;4173751;28;20218;-85
2023/10/18 03:31:27;;;;;;;18.85;14.00;;;;;;;7.85;90.94;97665.25;4172335;28;20254;-86
2023/10/18 03:33:32;;;;;;;17.42;12.57;;;;;;;7.84;90.75;97661.00;4190940;28;20279;-85
2023/10/18 03:35:39;;;;;;;18.65;13.55;;;;;;;7.86;91.22;97647.91;4158358;28;20281;-86
2023/10/18 03:37:46;;;;;;;17.13;13.68;;;;;;;7.87;91.58;97650.41;4171191;28;20632;-86
2023/10/18 03:39:53;;;;;;;16.10;12.73;;;;;;;7.89;91.09;97637.34;4175602;28;20258;-85
2023/10/18 03:41:58;;;;;;;17.15;13.70;;;;;;;7.90;91.88;97634.63;4159497;28;20587;-85
2023/10/18 03:44:06;;;;;;;16.55;12.77;;;;;;;7.93;90.88;97637.03;4171971;28;20710;-85
2023/10/18 03:46:13;;;;;;;20.42;13.77;;;;;;;7.97;91.07;97649.72;4162171;28;20288;-86
2023/10/18 03:48:24;;;;;;;16.88;12.73;;;;;;;8.00;90.56;97646.91;4167428;28;20209;-85
2023/10/18 03:50:35;;;;;;;16.95;12.20;;;;;;;8.07;90.50;97647.34;4176188;28;20604;-86
2023/10/18 03:52:39;;;;;;;17.50;12.52;;;;;;;8.10;90.97;97652.34;4168716;28;20210;-86
2023/10/18 03:54:44;;;;;;;16.38;12.98;;;;;;;8.11;90.47;97639.28;4184858;28;20209;-86
2023/10/18 03:56:51;;;;;;;19.70;13.75;;;;;;;8.15;89.75;97635.56;4176624;28;20225;-86
2023/10/18 03:59:00;;;;;;;18.00;13.32;;;;;;;8.18;90.72;97632.75;4165968;28;20214;-85
2023/10/18 04:01:05;;;;;;;19.58;13.43;;;;;;;8.19;90.56;97628.38;4206334;28;20680;-86
2023/10/18 04:03:10;;;;;;;17.58;12.77;;;;;;;8.21;90.05;97622.16;4180811;28;20899;-86
2023/10/18 04:05:30;;;;;;;17.90;11.93;;;;;;;8.18;90.03;97622.38;4169095;28;20212;-86
2023/10/18 04:07:33;;;;;;;17.00;12.52;;;;;;;8.04;89.67;97614.63;4169934;28;20205;-86
2023/10/18 04:09:39;;;;;;;16.48;11.55;;;;;;;7.98;89.19;97617.63;4189570;28;20213;-86
2023/10/18 04:11:43;;;;;;;17.90;12.95;;;;;;;7.91;89.49;97614.69;4173147;28;20303;-86
2023/10/18 04:13:47;;;;;;;16.15;12.20;;;;;;;7.87;88.50;97623.63;4160779;28;20210;-88
2023/10/18 04:15:59;;;;;;;15.90;11.63;;;;;;;7.83;89.11;97628.16;4190878;28;20198;-86
2023/10/18 04:18:10;;;;;;;16.38;11.90;;;;;;;7.80;88.59;97630.13;4157932;28;20213;-86
2023/10/18 04:20:22;;;;;;;16.77;12.32;;;;;;;7.75;89.49;97625.25;4201283;28;20231;-86
2023/10/18 04:22:27;;;;;;;15.85;11.93;;;;;;;7.73;89.69;97621.09;4151912;28;20214;-86
2023/10/18 04:24:32;;;;;;;17.02;12.65;;;;;;;7.74;90.41;97623.59;4170764;28;20206;-86
2023/10/18 04:26:35;;;;;;;17.80;12.20;;;;;;;7.75;90.24;97619.22;4188313;28;20240;-85
2023/10/18 04:28:38;;;;;;;22.35;18.20;;;;;;;7.69;90.13;97614.44;4172106;28;20225;-86
2023/10/18 04:30:42;;;;;;;22.42;14.73;;;;;;;7.66;89.26;97612.03;4175528;28;20233;-86
2023/10/18 04:32:53;;;;;;;31.63;24.45;;;;;;;7.63;89.04;97602.69;4173794;28;20213;-86
2023/10/18 04:34:56;;;;;;;32.00;23.17;;;;;;;7.58;89.61;97598.72;4205770;28;20742;-86
2023/10/18 04:37:00;;;;;;;44.90;30.33;;;;;;;7.55;89.31;97591.97;4174214;28;20341;-86
2023/10/18 04:39:06;;;;;;;48.22;30.30;;;;;;;7.54;89.84;97584.28;4172997;28;20676;-86
2023/10/18 04:41:10;;;;;;;45.38;30.58;;;;;;;7.51;89.27;97577.53;4151026;28;20194;-86
2023/10/18 04:43:14;;;;;;;25.60;15.70;;;;;;;7.51;90.49;97580.13;4174333;28;20297;-86
2023/10/18 04:45:23;;;;;;;20.58;14.95;;;;;;;7.50;91.04;97583.66;4181704;28;20236;-85
2023/10/18 04:47:32;;;;;;;18.00;13.27;;;;;;;7.53;90.91;97580.00;4170683;28;20213;-86
2023/10/18 04:49:38;;;;;;;20.35;14.50;;;;;;;7.55;89.72;97583.38;4171710;28;20214;-86
2023/10/18 04:51:45;;;;;;;17.58;13.45;;;;;;;7.58;90.93;97585.75;4186896;28;20205;-85
2023/10/18 04:53:52;;;;;;;19.35;14.02;;;;;;;7.60;90.10;97584.72;4190007;28;20337;-86
2023/10/18 04:55:55;;;;;;;18.60;13.70;;;;;;;7.65;89.59;97584.41;4156684;28;20292;-85
2023/10/18 04:57:58;;;;;;;16.60;12.70;;;;;;;7.66;89.54;97578.31;4170673;28;20312;-85
2023/10/18 05:00:10;;;;;;;16.17;12.00;;;;;;;7.60;89.91;97582.13;4158329;28;20207;-85
2023/10/18 05:02:18;;;;;;;16.75;12.55;;;;;;;7.53;90.29;97565.31;4176370;28;20213;-87
2023/10/18 05:04:24;;;;;;;18.58;13.27;;;;;;;7.49;88.99;97560.41;4187240;28;20236;-85
2023/10/18 05:06:34;;;;;;;16.98;12.57;;;;;;;7.43;89.80;97555.63;4185725;28;20208;-86
2023/10/18 05:08:36;;;;;;;22.08;15.32;;;;;;;7.41;89.40;97552.28;4208678;28;20926;-85
2023/10/18 05:10:40;;;;;;;17.85;14.20;;;;;;;7.45;89.91;97552.94;4203218;28;20214;-85
2023/10/18 05:12:53;;;;;;;20.45;16.10;;;;;;;7.50;89.65;97552.53;4174438;28;20194;-85
2023/10/18 05:15:09;;;;;;;19.50;15.55;;;;;;;7.51;90.86;97540.38;4173151;28;20645;-85
2023/10/18 05:17:17;;;;;;;17.90;14.10;;;;;;;7.51;90.47;97537.78;4174513;28;20272;-85
2023/10/18 05:19:28;;;;;;;21.45;16.40;;;;;;;7.50;90.74;97546.50;4158804;28;20202;-86
2023/10/18 05:21:31;;;;;;;18.77;14.00;;;;;;;7.53;90.29;97557.53;4158059;28;20206;-86
2023/10/18 05:23:36;;;;;;;17.80;13.05;;;;;;;7.56;89.74;97557.31;4177832;28;20210;-85
2023/10/18 05:25:46;;;;;;;15.75;13.32;;;;;;;7.56;90.24;97546.09;4178136;28;20336;-86
2023/10/18 05:27:59;;;;;;;22.23;14.57;;;;;;;7.52;90.08;97552.44;4180424;28;20680;-86
2023/10/18 05:30:14;;;;;;;19.17;14.57;;;;;;;7.52;90.73;97552.44;4189828;28;20240;-85
2023/10/18 05:32:36;;;;;;;18.65;14.20;;;;;;;7.51;91.17;97548.16;4174468;28;20206;-85
2023/10/18 05:35:00;;;;;;;21.52;14.27;;;;;;;7.50;90.39;97538.72;4163224;28;20213;-86
2023/10/18 05:37:19;;;;;;;20.80;14.23;;;;;;;7.52;90.02;97548.06;4183631;28;20676;-86
2023/10/18 05:39:27;;;;;;;21.77;14.55;;;;;;;7.52;90.81;97553.25;4173789;28;20205;-86
2023/10/18 05:41:45;;;;;;;19.77;14.85;;;;;;;7.48;90.89;97546.59;4174547;28;20201;-86
2023/10/18 05:43:47;;;;;;;21.48;14.68;;;;;;;7.49;90.88;97550.03;4174388;28;20636;-86
2023/10/18 05:45:55;;;;;;;20.83;15.82;;;;;;;7.53;90.83;97559.25;4154308;28;20209;-85
2023/10/18 05:48:02;;;;;;;26.75;16.00;;;;;;;7.55;90.46;97560.84;4175305;28;20247;-85
2023/10/18 05:50:12;;;;;;;21.48;15.07;;;;;;;7.55;91.29;97550.47;4187485;28;20205;-85
2023/10/18 05:52:29;;;;;;;20.95;15.05;;;;;;;7.54;90.21;97540.19;4175179;28;20214;-85
2023/10/18 05:54:34;;;;;;;18.30;14.48;;;;;;;7.52;90.59;97535.09;4173738;28;20205;-86
2023/10/18 05:56:37;;;;;;;19.15;13.82;;;;;;;7.54;89.78;97547.97;4166636;28;20202;-84
2023/10/18 05:58:40;;;;;;;20.90;14.45;;;;;;;7.57;90.19;97547.75;4175179;28;20293;-85
2023/10/18 06:00:43;;;;;;;19.75;15.32;;;;;;;7.55;90.51;97552.22;4202934;28;20206;-85
2023/10/18 06:02:46;;;;;;;19.50;15.38;;;;;;;7.55;89.83;97542.69;4188286;28;20202;-85
2023/10/18 06:04:51;;;;;;;20.95;14.57;;;;;;;7.56;90.96;97553.88;4178566;28;20228;-85
2023/10/18 06:06:58;;;;;;;20.35;15.32;;;;;;;7.53;91.05;97546.28;4155022;28;20213;-86
2023/10/18 06:09:08;;;;;;;25.30;15.95;;;;;;;7.53;90.33;97556.66;4174407;28;20199;-82
2023/10/18 06:11:14;;;;;;;20.83;14.93;;;;;;;7.56;90.48;97543.50;4171887;28;20458;-83
2023/10/18 06:13:22;;;;;;;22.17;16.10;;;;;;;7.58;91.34;97533.88;4172472;28;20291;-82
2023/10/18 06:15:34;;;;;;;28.13;16.27;;;;;;;7.65;90.68;97532.53;4204009;28;20211;-82
2023/10/18 06:17:46;;;;;;;26.98;17.23;;;;;;;7.75;91.43;97539.59;4163857;28;20275;-82
2023/10/18 06:19:51;;;;;;;21.10;15.25;;;;;;;7.78;91.19;97536.81;4165618;28;20245;-81
2023/10/18 06:21:59;;;;;;;22.50;16.52;;;;;;;7.80;89.54;97544.50;4166323;28;20300;-81
2023/10/18 06:24:09;;;;;;;22.00;15.32;;;;;;;7.87;91.03;97540.56;4166969;28;20684;-81
2023/10/18 06:28:30;;;;;;;22.80;16.45;;;;;;;7.87;89.20;97537.97;4175482;28;20214;-81
2023/10/18 06:30:39;;;;;;;23.88;17.52;;;;;;;7.88;89.59;97531.81;4175739;28;20256;-81
2023/10/18 06:32:43;;;;;;;22.58;16.48;;;;;;;7.88;89.68;97543.06;4174407;28;20643;-81
2023/10/18 06:34:48;;;;;;;21.42;17.00;;;;;;;7.90;90.00;97545.56;4169658;28;20202;-81
2023/10/18 06:36:52;;;;;;;22.58;16.00;;;;;;;7.93;90.75;97547.94;4188996;28;20217;-81
2023/10/18 06:38:58;;;;;;;23.02;16.70;;;;;;;7.97;89.08;97535.47;4202019;28;20345;-81
2023/10/18 06:41:02;;;;;;;22.40;16.35;;;;;;;7.96;90.21;97525.19;4172786;28;20218;-82
2023/10/18 06:43:09;;;;;;;21.10;15.43;;;;;;;8.00;90.75;97539.66;4177783;28;20205;-83
2023/10/18 06:45:15;;;;;;;24.17;16.98;;;;;;;8.04;89.42;97533.28;4176897;28;20213;-83
2023/10/18 06:47:19;;;;;;;21.58;16.48;;;;;;;8.09;90.19;97537.25;4174039;28;20193;-83
2023/10/18 06:49:22;;;;;;;21.90;16.52;;;;;;;8.15;90.66;97536.88;4175651;28;20240;-83
2023/10/18 06:51:40;;;;;;;29.58;18.58;;;;;;;8.19;89.21;97525.31;4200655;28;20216;-84
2023/10/18 06:53:47;;;;;;;25.08;17.05;;;;;;;8.22;89.86;97522.53;4171455;28;20217;-82
2023/10/18 06:55:57;;;;;;;23.83;17.05;;;;;;;8.22;90.17;97525.13;4157386;28;20209;-82
2023/10/18 06:58:12;;;;;;;23.77;17.00;;;;;;;8.24;89.09;97518.06;4178573;28;20248;-82
2023/10/18 07:00:16;;;;;;;23.88;17.40;;;;;;;8.26;88.74;97511.00;4175435;28;20213;-82
2023/10/18 07:02:26;;;;;;;21.88;15.30;;;;;;;8.32;89.28;97518.38;4175977;28;20209;-82
2023/10/18 07:04:35;;;;;;;23.58;16.77;;;;;;;8.41;89.49;97512.53;4205589;28;20204;-82
2023/10/18 07:06:38;;;;;;;28.58;17.55;;;;;;;8.49;89.83;97515.44;4159831;28;20210;-81
2023/10/18 07:08:44;;;;;;;26.42;17.35;;;;;;;8.51;88.11;97508.38;4170559;28;20237;-81
2023/10/18 07:10:53;;;;;;;24.45;16.80;;;;;;;8.56;88.21;97506.28;4174346;28;20229;-82
2023/10/18 07:13:04;;;;;;;25.50;17.15;;;;;;;8.57;89.11;97513.16;4178730;28;20296;-82
2023/10/18 07:15:15;;;;;;;23.05;16.42;;;;;;;8.62;88.80;97511.88;4188395;28;20213;-81
2023/10/18 07:17:21;;;;;;;21.92;16.52;;;;;;;8.65;87.43;97516.88;4189253;28;20296;-80
2023/10/18 07:19:27;;;;;;;27.75;17.88;;;;;;;8.77;88.24;97505.63;4176985;28;20781;-81
2023/10/18 07:21:32;;;;;;;24.73;17.42;;;;;;;8.86;86.77;97507.56;4166846;28;20230;-82
2023/10/18 07:23:37;;;;;;;26.70;17.60;;;;;;;8.98;87.33;97504.91;4192348;28;20213;-82
2023/10/18 07:25:41;;;;;;;24.02;17.90;;;;;;;9.10;86.30;97501.44;4176472;28;20211;-82
2023/10/18 07:27:55;;;;;;;25.65;18.55;;;;;;;9.21;86.66;97495.47;4160903;28;20218;-82
2023/10/18 07:30:00;;;;;;;22.75;17.60;;;;;;;9.29;86.93;97498.34;4173248;28;20827;-79
2023/10/18 07:32:12;;;;;;;23.03;16.47;;;;;;;9.31;86.81;97501.66;4169274;28;20269;-80
2023/10/18 07:34:25;;;;;;;22.63;16.53;;;;;;;9.29;86.57;97504.38;4178202;28;20642;-79
2023/10/18 07:36:30;;;;;;;22.83;16.43;;;;;;;9.30;86.03;97502.59;4187036;28;21011;-80
2023/10/18 07:38:37;;;;;;;22.20;17.57;;;;;;;9.27;85.97;97490.63;4184534;28;21259;-79
2023/10/18 07:40:41;;;;;;;23.95;16.65;;;;;;;9.35;85.68;97498.75;4170666;28;20663;-79
2023/10/18 07:42:45;;;;;;;24.05;17.15;;;;;;;9.43;86.77;97492.00;4171755;28;20209;-79
2023/10/18 07:44:52;;;;;;;22.83;18.10;;;;;;;9.56;85.73;97486.72;4171722;28;20206;-79
2023/10/18 07:46:57;;;;;;;25.90;17.67;;;;;;;9.71;85.24;97486.44;4170796;28;20632;-80
2023/10/18 07:49:04;;;;;;;23.63;16.03;;;;;;;9.79;85.67;97485.84;4178380;28;20628;-80
2023/10/18 07:51:23;;;;;;;23.10;17.70;;;;;;;9.86;85.42;97486.13;4172156;28;21308;-79
2023/10/18 07:53:30;;;;;;;20.57;15.73;;;;;;;9.84;84.16;97474.97;4170368;28;20637;-79
2023/10/18 07:55:36;;;;;;;24.70;17.50;;;;;;;9.75;84.93;97467.03;4176335;28;21401;-79
2023/10/18 07:57:46;;;;;;;24.00;16.37;;;;;;;9.81;85.65;97465.75;4175150;28;20218;-76
2023/10/18 08:00:15;;;;;;;24.43;17.27;;;;;;;9.89;84.94;97470.25;4178662;28;20688;-80
2023/10/18 08:02:23;;;;;;;24.33;16.60;;;;;;;9.98;84.72;97460.94;4176305;28;21505;-80
2023/10/18 08:04:27;;;;;;;25.13;17.17;;;;;;;10.02;84.29;97452.78;4186340;28;20681;-79
2023/10/18 08:06:33;;;;;;;22.00;16.30;;;;;;;10.01;83.83;97452.88;4176298;28;20625;-79
2023/10/18 08:08:36;;;;;;;24.27;16.93;;;;;;;9.97;84.07;97441.06;4174262;28;20672;-78
2023/10/18 08:10:42;;;;;;;21.30;15.70;;;;;;;9.95;83.90;97437.72;4173873;28;20635;-82
2023/10/18 08:12:48;;;;;;;21.93;16.30;;;;;;;9.96;84.68;97435.00;4171691;28;21213;-79
2023/10/18 08:14:54;;;;;;;20.70;15.47;;;;;;;10.02;84.55;97442.34;4173367;28;20632;-81
2023/10/18 08:16:58;;;;;;;22.30;16.83;;;;;;;10.12;84.37;97439.91;4172360;28;20638;-81
2023/10/18 08:19:07;;;;;;;23.17;17.40;;;;;;;10.14;85.14;97425.78;4204379;28;21222;-79
2023/10/18 08:21:25;;;;;;;21.67;16.20;;;;;;;10.18;84.36;97416.78;4202642;28;20718;-80
2023/10/18 08:23:39;;;;;;;20.53;15.20;;;;;;;10.21;84.12;97419.16;4174913;28;20609;-79
2023/10/18 08:25:47;;;;;;;20.83;14.80;;;;;;;10.30;84.23;97422.81;4188712;28;20684;-80
2023/10/18 08:27:53;;;;;;;19.60;14.67;;;;;;;10.37;83.86;97419.59;4190672;28;20658;-80
2023/10/18 08:30:06;;;;;;;20.30;16.40;;;;;;;10.40;84.71;97417.63;4180071;28;21047;-81
2023/10/18 08:32:14;;;;;;;22.03;15.33;;;;;;;10.54;84.36;97419.97;4170514;28;21511;-80
2023/10/18 08:34:19;;;;;;;20.77;15.13;;;;;;;10.69;84.03;97418.75;4175519;28;20629;-80
2023/10/18 08:36:30;;;;;;;19.00;15.33;;;;;;;10.84;84.92;97410.53;4175074;28;20648;-80
2023/10/18 08:38:33;;;;;;;21.37;15.63;;;;;;;11.04;82.84;97411.53;4177548;28;21278;-80
2023/10/18 08:40:38;;;;;;;17.93;14.10;;;;;;;11.16;81.81;97416.56;4190095;28;20666;-80
2023/10/18 08:42:49;;;;;;;21.57;14.53;;;;;;;11.23;81.47;97424.72;4175484;28;21176;-79
2023/10/18 08:44:55;;;;;;;17.83;13.67;;;;;;;11.26;81.24;97421.88;4206310;28;20662;-80
2023/10/18 08:47:11;;;;;;;17.13;13.60;;;;;;;11.24;81.50;97413.34;4179108;28;20628;-80
2023/10/18 08:49:23;;;;;;;18.27;13.50;;;;;;;11.31;80.67;97415.31;4178141;28;20690;-80
2023/10/18 08:51:27;;;;;;;20.70;15.30;;;;;;;11.44;80.82;97424.63;4157613;28;20643;-80
2023/10/18 08:53:33;;;;;;;23.63;16.07;;;;;;;11.53;81.05;97430.91;4177184;28;21041;-80
2023/10/18 08:55:45;;;;;;;18.50;14.00;;;;;;;11.64;79.98;97425.63;4176494;28;20635;-80
2023/10/18 08:57:55;;;;;;;20.03;14.23;;;;;;;11.70;80.23;97420.72;4172966;28;20655;-80
2023/10/18 09:00:17;;;;;;;20.77;15.20;;;;;;;11.79;79.69;97436.44;4170119;28;20756;-80
2023/10/18 09:02:21;;;;;;;23.90;16.03;;;;;;;11.96;80.01;97427.19;4165790;28;20611;-80
2023/10/18 09:04:28;;;;;;;17.07;13.00;;;;;;;12.03;78.25;97428.34;4154699;28;20976;-80
2023/10/18 09:06:31;;;;;;;18.30;15.53;;;;;;;12.08;78.31;97424.38;4173466;28;20620;-80
2023/10/18 09:08:37;;;;;;;20.60;15.03;;;;;;;12.17;79.70;97423.59;4174925;28;20721;-80
2023/10/18 09:10:46;;;;;;;19.33;15.20;;;;;;;12.32;78.16;97420.47;4173671;28;20694;-80
2023/10/18 09:15:29;;;;;;;15.47;12.93;;;;;;;12.65;78.85;97432.44;4147363;28;20662;-80
2023/10/18 09:17:36;;;;;;;18.70;14.20;;;;;;;12.81;76.58;97416.09;4173499;28;20622;-80
2023/10/18 09:19:45;;;;;;;17.33;14.67;;;;;;;12.70;77.93;97408.38;4174429;28;21181;-80
2023/10/18 09:21:57;;;;;;;17.50;14.23;;;;;;;12.85;77.01;97417.53;4180108;28;20632;-79
2023/10/18 09:24:00;;;;;;;19.30;14.40;;;;;;;12.96;78.04;97419.19;4188651;28;20702;-80
2023/10/18 09:26:10;;;;;;;19.83;15.57;;;;;;;13.14;77.37;97428.03;4176944;28;20664;-80
2023/10/18 09:28:13;;;;;;;17.23;14.57;;;;;;;13.18;76.56;97432.84;4168436;28;20687;-80
2023/10/18 09:30:19;;;;;;;18.50;13.97;;;;;;;13.27;76.27;97432.03;4172233;28;20671;-80
2023/10/18 09:32:33;;;;;;;17.73;13.77;;;;;;;13.32;76.78;97437.66;4172941;28;20715;-80
2023/10/18 09:34:38;;;;;;;17.63;15.07;;;;;;;13.35;74.88;97421.69;4174443;28;20678;-80
2023/10/18 09:36:53;;;;;;;16.83;14.20;;;;;;;13.21;75.85;97419.47;4187042;28;20723;-80
2023/10/18 09:38:57;;;;;;;18.20;14.23;;;;;;;13.21;76.29;97412.47;4172781;28;20712;-80
2023/10/18 09:41:00;;;;;;;16.67;13.30;;;;;;;13.24;76.01;97413.97;4160270;28;20670;-79
2023/10/18 09:43:04;;;;;;;18.37;13.60;;;;;;;13.28;77.12;97410.13;4176092;28;20660;-81
2023/10/18 09:45:08;;;;;;;16.23;12.83;;;;;;;13.21;76.65;97414.25;4191057;28;20631;-80
2023/10/18 09:47:10;;;;;;;15.83;13.37;;;;;;;13.27;75.83;97403.22;4168055;28;21182;-80
2023/10/18 09:49:21;;;;;;;17.37;14.07;;;;;;;13.45;76.15;97404.19;4173266;28;20641;-79
2023/10/18 09:51:24;;;;;;;15.70;12.83;;;;;;;13.64;75.83;97404.19;4175704;28;20749;-80
2023/10/18 09:53:30;;;;;;;14.50;11.87;;;;;;;13.79;76.00;97401.78;4172941;28;20648;-80